Tuxtla Gutierrez, Mexico

8:02 PM CST on February 10, 2016 (GMT -0600)
Chiapa de Corzo, Ribera de cupia | | Change Station
CLOSE
Current Station
Personal Weather Station
Location: Amatal, CHIAPAS
Elevation: 1230 ft
Nearby Weather Stations

Elev 1230 ft 16.67 °N, 93.02 °W | Updated 0 second ago

Scattered Clouds
Scattered Clouds
69.3 °F
Feels Like 69.3 °F
N
4.9
Wind Variable Wind from NNW
Gusts 7.4 mph

Today
High -- | Low -- °F
--% Chance of Precip.
Yesterday
High -- | Low -- °F
Precip. -- in
Pressure 30.22 in
Visibility 8.0 miles
Clouds Scattered Clouds 8000 ft
Dew Point 50 °F
Humidity 51%
Rainfall 0.00 in
Snow Depth Not available.
6:40 AM 6:12 PM
Waxing Crescent, 8% visible
METAR MMTG 110146Z 31015KT 8SM SCT080 18/09 A3022 RMK 8/030 HZY
Pressure 30.22 in
Visibility 8.0 miles
Clouds Scattered Clouds 8000 ft
Dew Point 50 °F
Humidity 51%
Rainfall 0.00 in
Snow Depth Not available.
6:40 AM 6:12 PM
Waxing Crescent, 8% visible
METAR MMTG 110146Z 31015KT 8SM SCT080 18/09 A3022 RMK 8/030 HZY

10-Day Weather Forecast

No radar image for this location.
×

Almanac

Astronomy

Feb. 10, 2016 Rise Set
Actual Time
Civil Twilight
Nautical Twilight
Astronomical Twilight
Moon
Length of Visible Light
Length of Day
Tomorrow will be .
, % of the Moon is Illuminated

Today's Extremes

Country Highs Country Lows

Community

WunderPhotos

Upload Photos

1,891,974 photos uploaded!

WunderBlog® & News

Nearby

Air Quality

  Air Quality AQ Index Pollutant
Not available.

Snow Depth

Station Depth Elevation

Earthquake Activity

City Distance Mag. Time & Date
Minimum magnitude displayed is 2.5.

Coastal Water Temperatures

Place Temperature

Stations

Nearby Weather Stations

Station Location Temp. Windchill Dew Point Humidity Wind Precip. Elev Updated Type